Coffs Harbour, Australia
Current Conditions -  °F | °C
As of 6:30 AM on Sunday 26 Oct 2014 (Local Time) from YCFS Reporting Station
Clear Clear  
Wind Chill: 59°   Ceiling: Unl
Heat Index: 59°   Visibility: 6mi
Dew Point: 57°   Wind: 1mph
Humidity: 94%   Direction: 30°NNE
Pressure: 29.94"   Gusts: NA
Location:  30.28°S, 153.13°E
Report Text: YCFS 251930Z 03001KT CAVOK 15/14 Q1014
Loading
Personal Weather Stations






























Interactive Weather Map
Tropical Storm Tracking
New forecast layout! Learn more

10-Day Weather Forecast

Advertisements
Track Severe Weather on mobile